Terminal Aerodrome Forecast
Issued by NWS

Home | Current Version | Previous Version | Graphics & Text | Print | Product List | Glossary On
Versions: 1 2 3 4 5 6 7 8 9 10 11 12 13 14 15 16 17 18 19 20 21 22 23 24 25 26
771
FTUS43 KIWX 081530 AAA
TAFSBN
TAF AMD
KSBN 081530Z 0816/0912 24008KT P6SM BKN015 BKN100
     FM082000 30009KT 5SM -SHSN OVC012
     FM090200 28008KT P6SM VCSH OVC015
     FM090500 31012KT 2SM -SHSN OVC010=

USA.gov is the U.S. government's official web portal to all federal, state and local government web resources and services.